Terminal Aerodrome Forecast
Issued by NWS

Home | Current Version | Previous Version | Text Only | Print | Product List | Glossary On
Versions: 1 2 3 4 5 6 7 8 9 10 11 12 13
013
FTUS46 KMTR 211724
TAFSNS
TAF
KSNS 211724Z 2118/2218 28010KT P6SM SKC
     FM220400 28008KT P6SM SKC
     FM220900 29005KT P6SM SKC
     FM221200 12004KT 4SM BR OVC004
     FM221600 12005KT P6SM SCT007=

USA.gov is the U.S. government's official web portal to all federal, state and local government web resources and services.